createdAt,value
2023-04-18T00:02:10.719Z,9.37
2023-04-18T00:04:38.736Z,10.30
2023-04-18T00:07:06.550Z,9.93
2023-04-18T00:09:35.683Z,10.55
2023-04-18T00:12:04.935Z,10.02
2023-04-18T00:14:34.681Z,9.27
2023-04-18T00:17:02.962Z,9.40
2023-04-18T00:19:30.718Z,9.43
2023-04-18T00:21:59.902Z,10.95
2023-04-18T00:24:27.658Z,9.20
2023-04-18T00:26:57.182Z,8.85
2023-04-18T00:29:24.977Z,8.88
2023-04-18T00:31:52.685Z,9.07
2023-04-18T00:34:20.411Z,10.05
2023-04-18T00:36:48.113Z,8.95
2023-04-18T00:39:15.808Z,9.95
2023-04-18T00:41:43.512Z,9.32
2023-04-18T00:44:12.883Z,10.02
2023-04-18T00:46:41.018Z,9.20
2023-04-18T00:49:09.069Z,9.68
2023-04-18T00:51:36.780Z,9.15
2023-04-18T00:54:05.220Z,8.70
2023-04-18T00:56:32.901Z,13.93
2023-04-18T00:59:01.518Z,12.63
2023-04-18T01:01:30.951Z,9.57
2023-04-18T01:03:58.704Z,11.75
2023-04-18T01:06:26.978Z,9.60
2023-04-18T01:08:54.911Z,9.20
2023-04-18T01:11:22.581Z,22.40
2023-04-18T01:14:00.534Z,9.32
2023-04-18T01:16:32.631Z,9.75
2023-04-18T01:19:00.443Z,9.38
2023-04-18T01:21:31.142Z,10.63
2023-04-18T01:24:03.310Z,10.65
2023-04-18T01:26:36.116Z,8.80
2023-04-18T01:29:04.012Z,9.15
2023-04-18T01:31:31.918Z,10.20
2023-04-18T01:34:01.660Z,9.63
2023-04-18T01:36:29.958Z,11.18
2023-04-18T01:38:59.782Z,9.63
2023-04-18T01:41:29.916Z,10.27
2023-04-18T01:44:02.885Z,9.65
2023-04-18T01:46:31.164Z,9.45
2023-04-18T01:49:00.105Z,10.90
2023-04-18T01:51:28.574Z,10.07
2023-04-18T01:53:58.214Z,9.98
2023-04-18T01:56:26.393Z,9.80
2023-04-18T01:58:54.293Z,10.13
2023-04-18T02:01:27.188Z,12.20
2023-04-18T02:03:55.558Z,12.80
2023-04-18T02:06:26.234Z,9.18
2023-04-18T02:08:55.866Z,12.32
2023-04-18T02:11:25.914Z,12.55
2023-04-18T02:13:55.824Z,9.90
2023-04-18T02:16:28.743Z,9.87
2023-04-18T02:18:56.708Z,13.27
2023-04-18T02:21:24.636Z,9.80
2023-04-18T02:23:52.404Z,10.32
2023-04-18T02:26:22.244Z,11.50
2023-04-18T02:28:52.195Z,9.85
2023-04-18T02:31:21.951Z,10.93
2023-04-18T02:33:54.750Z,10.40
2023-04-18T02:36:22.540Z,11.67
2023-04-18T02:38:50.341Z,11.35
2023-04-18T02:41:19.637Z,10.63
2023-04-18T02:43:47.413Z,10.45
2023-04-18T02:46:17.594Z,10.05
2023-04-18T02:48:47.337Z,10.32
2023-04-18T02:51:20.099Z,10.80
2023-04-18T02:53:48.347Z,10.23
2023-04-18T02:56:17.142Z,11.48
2023-04-18T02:58:45.108Z,10.07
2023-04-18T03:01:12.899Z,10.90
2023-04-18T03:03:41.215Z,10.95
2023-04-18T03:06:09.480Z,11.60
2023-04-18T03:08:42.355Z,11.95
2023-04-18T03:11:12.225Z,11.75
2023-04-18T03:13:42.011Z,11.10
2023-04-18T03:16:10.090Z,11.48
2023-04-18T03:18:38.109Z,11.05
2023-04-18T03:21:06.482Z,11.10
2023-04-18T03:23:36.035Z,11.48
2023-04-18T03:26:07.558Z,10.70
2023-04-18T03:28:35.986Z,11.73
2023-04-18T03:31:05.679Z,10.65
2023-04-18T03:33:33.560Z,10.87
2023-04-18T03:36:03.658Z,11.25
2023-04-18T03:38:33.726Z,10.90
2023-04-18T03:41:01.740Z,11.80
2023-04-18T03:43:32.944Z,11.57
2023-04-18T03:46:02.807Z,10.77
2023-04-18T03:48:31.127Z,11.68
2023-04-18T03:51:00.953Z,11.73
2023-04-18T03:53:29.145Z,12.45
2023-04-18T03:55:57.559Z,11.05
2023-04-18T03:58:27.232Z,11.55
2023-04-18T04:00:58.319Z,13.18
2023-04-18T04:03:27.893Z,11.40
2023-04-18T04:05:56.384Z,11.45
2023-04-18T04:08:25.928Z,11.48
2023-04-18T04:10:57.362Z,11.57
2023-04-18T04:13:25.353Z,13.02
2023-04-18T04:15:53.423Z,12.70
2023-04-18T04:18:25.444Z,11.30
2023-04-18T04:20:53.526Z,10.65
2023-04-18T04:23:22.694Z,11.38
2023-04-18T04:25:53.146Z,10.82
2023-04-18T04:28:22.752Z,10.77
2023-04-18T04:30:50.873Z,11.40
2023-04-18T04:33:19.456Z,10.87
2023-04-18T04:35:49.642Z,10.63
2023-04-18T04:38:19.967Z,10.93
2023-04-18T04:40:47.679Z,10.48
2023-04-18T04:43:15.816Z,11.27
2023-04-18T04:45:44.750Z,12.13
2023-04-18T04:48:14.673Z,10.60
2023-04-18T04:50:43.319Z,11.43
2023-04-18T04:53:12.864Z,11.93
2023-04-18T04:55:41.463Z,11.53
2023-04-18T04:58:09.367Z,10.80
2023-04-18T05:00:37.088Z,12.43
2023-04-18T05:03:05.050Z,11.32
2023-04-18T05:05:33.137Z,12.32
2023-04-18T05:08:00.968Z,11.60
2023-04-18T05:10:32.714Z,11.95
2023-04-18T05:13:00.464Z,11.55
2023-04-18T05:15:28.182Z,10.90
2023-04-18T05:17:55.858Z,12.57
2023-04-18T05:20:23.870Z,11.20
2023-04-18T05:22:51.621Z,11.00
2023-04-18T05:25:19.547Z,11.10
2023-04-18T05:27:48.687Z,11.20
2023-04-18T05:30:16.453Z,10.70
2023-04-18T05:32:44.507Z,10.68
2023-04-18T05:35:12.527Z,10.25
2023-04-18T05:37:40.236Z,10.10
2023-04-18T05:40:12.182Z,9.93
2023-04-18T05:42:40.145Z,9.68
2023-04-18T05:45:10.387Z,9.57
2023-04-18T05:47:38.322Z,10.35
2023-04-18T05:50:07.341Z,9.80
2023-04-18T05:52:35.161Z,9.70
2023-04-18T05:55:04.513Z,9.38
2023-04-18T05:57:32.853Z,8.70
2023-04-18T06:00:00.543Z,9.73
2023-04-18T06:02:32.179Z,8.40
2023-04-18T06:05:00.169Z,8.48
2023-04-18T06:07:28.162Z,8.95
2023-04-18T06:09:56.701Z,8.52
2023-04-18T06:12:24.494Z,8.60
2023-04-18T06:14:52.258Z,7.95
2023-04-18T06:17:21.487Z,8.15
2023-04-18T06:19:50.895Z,7.85
2023-04-18T06:22:18.647Z,8.50
2023-04-18T06:24:46.436Z,7.97
2023-04-18T06:27:27.734Z,8.20
2023-04-18T06:29:58.089Z,7.55
2023-04-18T06:32:26.146Z,8.02
2023-04-18T06:34:55.318Z,7.45
2023-04-18T06:37:23.102Z,7.65
2023-04-18T06:39:50.857Z,8.63
2023-04-18T06:42:20.211Z,7.97
2023-04-18T06:44:49.320Z,7.45
2023-04-18T06:47:17.207Z,7.40
2023-04-18T06:49:45.167Z,7.63
2023-04-18T06:52:14.436Z,8.45
2023-04-18T06:54:42.104Z,7.90
2023-04-18T06:57:10.074Z,8.10
2023-04-18T06:59:37.689Z,7.68
2023-04-18T07:02:05.581Z,8.15
2023-04-18T07:04:33.315Z,7.63
2023-04-18T07:07:01.439Z,7.55
2023-04-18T07:09:30.733Z,7.40
2023-04-18T07:11:58.551Z,7.18
2023-04-18T07:14:26.467Z,9.18
2023-04-18T07:16:54.326Z,7.20
2023-04-18T07:19:22.057Z,6.53
2023-04-18T07:21:49.729Z,6.75
2023-04-18T07:24:17.450Z,6.68
2023-04-18T07:26:46.753Z,7.00
2023-04-18T07:29:14.431Z,6.93
2023-04-18T07:31:42.187Z,6.93
2023-04-18T07:34:10.123Z,7.47
2023-04-18T07:36:38.067Z,6.80
2023-04-18T07:39:05.906Z,6.85
2023-04-18T07:41:33.674Z,6.22
2023-04-18T07:44:02.836Z,6.80
2023-04-18T07:46:32.338Z,6.57
2023-04-18T07:49:00.034Z,7.55
2023-04-18T07:51:31.461Z,6.93
2023-04-18T07:53:59.614Z,6.70
2023-04-18T07:56:27.422Z,6.40
2023-04-18T07:58:55.630Z,6.85
2023-04-18T08:01:27.121Z,7.72
2023-04-18T08:03:56.633Z,7.20
2023-04-18T08:06:24.494Z,6.25
2023-04-18T08:08:52.454Z,7.30
2023-04-18T08:11:20.110Z,6.80
2023-04-18T08:13:47.866Z,7.00
2023-04-18T08:16:17.313Z,7.00
2023-04-18T08:18:46.777Z,7.10
2023-04-18T08:21:14.513Z,7.30
2023-04-18T08:23:42.390Z,8.38
2023-04-18T08:26:10.117Z,6.88
2023-04-18T08:28:37.809Z,7.13
2023-04-18T08:31:05.860Z,6.70
2023-04-18T08:33:33.587Z,6.60
2023-04-18T08:36:02.642Z,7.40
2023-04-18T08:38:30.705Z,7.57
2023-04-18T08:40:58.353Z,7.63
2023-04-18T08:43:26.103Z,7.60
2023-04-18T08:45:59.325Z,7.63
2023-04-18T08:48:27.805Z,7.97
2023-04-18T08:50:58.143Z,7.78
2023-04-18T08:53:28.017Z,7.80
2023-04-18T08:55:56.349Z,7.53
2023-04-18T08:58:27.066Z,8.00
2023-04-18T09:00:55.572Z,8.07
2023-04-18T09:03:40.032Z,7.63
2023-04-18T09:06:09.482Z,7.95
2023-04-18T09:08:39.123Z,8.27
2023-04-18T09:11:26.477Z,8.68
2023-04-18T09:13:56.298Z,8.82
2023-04-18T09:16:24.786Z,8.30
2023-04-18T09:19:13.725Z,7.93
2023-04-18T09:21:44.337Z,9.48
2023-04-18T09:24:23.710Z,9.20
2023-04-18T09:26:53.759Z,9.98
2023-04-18T09:29:22.988Z,8.30
2023-04-18T09:31:59.774Z,8.73
2023-04-18T09:34:28.148Z,8.45
2023-04-18T09:37:14.315Z,9.20
2023-04-18T09:39:44.701Z,8.30
2023-04-18T09:42:13.897Z,9.03
2023-04-18T09:44:59.929Z,9.03
2023-04-18T09:47:28.841Z,9.13
2023-04-18T09:49:56.656Z,8.85
2023-04-18T09:52:25.394Z,9.27
2023-04-18T09:54:59.303Z,8.38
2023-04-18T09:57:28.888Z,9.38
2023-04-18T10:00:02.902Z,8.53
2023-04-18T10:02:35.842Z,10.05
2023-04-18T10:05:05.643Z,9.52
2023-04-18T10:07:33.851Z,9.48
2023-04-18T10:10:02.954Z,8.95
2023-04-18T10:12:30.705Z,8.73
2023-04-18T10:14:58.887Z,8.63
2023-04-18T10:17:29.621Z,9.02
2023-04-18T10:20:10.133Z,8.63
2023-04-18T10:22:37.871Z,8.57
2023-04-18T10:25:08.137Z,8.38
2023-04-18T10:27:55.567Z,9.20
2023-04-18T10:30:53.504Z,8.65
2023-04-18T10:33:30.345Z,9.63
2023-04-18T10:36:01.319Z,9.48
2023-04-18T10:38:29.211Z,10.32
2023-04-18T10:41:23.285Z,9.57
2023-04-18T10:44:27.664Z,10.20
2023-04-18T10:47:32.226Z,10.10
2023-04-18T10:50:01.559Z,10.63
2023-04-18T10:52:30.385Z,10.30
2023-04-18T10:55:11.803Z,10.13
2023-04-18T10:57:42.921Z,11.23
2023-04-18T11:00:12.636Z,10.43
2023-04-18T11:02:41.345Z,10.90
2023-04-18T11:05:09.988Z,11.13
2023-04-18T11:07:39.248Z,10.73
2023-04-18T11:10:09.091Z,10.60
2023-04-18T11:12:38.410Z,11.05
2023-04-18T11:15:14.400Z,11.07
2023-04-18T11:17:42.406Z,11.05
2023-04-18T11:20:12.805Z,10.50
2023-04-18T11:22:46.634Z,11.02
2023-04-18T11:25:15.281Z,10.40
2023-04-18T11:27:44.961Z,10.20
2023-04-18T11:30:15.922Z,10.23
2023-04-18T11:32:43.846Z,10.82
2023-04-18T11:35:12.647Z,10.00
2023-04-18T11:37:41.481Z,10.93
2023-04-18T11:40:10.651Z,10.60
2023-04-18T11:42:40.027Z,10.80
2023-04-18T11:45:12.244Z,10.45
2023-04-18T11:47:42.933Z,10.20
2023-04-18T11:50:12.232Z,12.00
2023-04-18T11:52:41.165Z,11.23
2023-04-18T11:55:14.206Z,10.60
2023-04-18T12:02:58.659Z,11.25
2023-04-18T12:05:35.210Z,11.43
2023-04-18T12:08:14.545Z,12.02
2023-04-18T12:10:53.122Z,11.18
2023-04-18T12:13:25.715Z,11.00
2023-04-18T12:15:58.328Z,11.75
2023-04-18T12:18:26.779Z,10.55
2023-04-18T12:20:58.695Z,10.60
2023-04-18T12:23:31.178Z,11.00
2023-04-18T12:26:05.006Z,11.05
2023-04-18T12:28:33.506Z,11.05
2023-04-18T12:31:02.865Z,10.90
2023-04-18T12:33:31.735Z,12.02
2023-04-18T12:35:59.978Z,10.98
2023-04-18T12:38:27.711Z,11.32
2023-04-18T12:40:55.463Z,10.27
2023-04-18T12:43:23.266Z,10.60
2023-04-18T12:45:51.078Z,10.25
2023-04-18T12:48:20.196Z,10.77
2023-04-18T12:50:47.906Z,10.27
2023-04-18T12:53:15.789Z,10.57
2023-04-18T12:55:43.617Z,9.43
2023-04-18T12:58:11.278Z,12.75
2023-04-18T13:00:38.993Z,9.27
2023-04-18T13:03:06.842Z,9.05
2023-04-18T13:05:36.288Z,8.68
2023-04-18T13:08:16.092Z,8.65
2023-04-18T13:10:45.861Z,8.98
2023-04-18T13:13:13.486Z,8.85
2023-04-18T13:15:41.253Z,8.80
2023-04-18T13:18:09.041Z,9.25
2023-04-18T13:20:38.151Z,8.73
2023-04-18T13:23:06.045Z,10.17
2023-04-18T13:25:33.799Z,8.63
2023-04-18T13:28:01.525Z,8.52
2023-04-18T13:30:29.322Z,7.93
2023-04-18T13:32:57.073Z,7.97
2023-04-18T13:35:25.101Z,8.32
2023-04-18T13:37:56.115Z,7.97
2023-04-18T13:40:24.167Z,7.85
2023-04-18T13:42:51.852Z,8.30
2023-04-18T13:45:20.623Z,7.75
2023-04-18T13:47:48.376Z,10.23
2023-04-18T13:50:16.110Z,8.25
2023-04-18T13:52:43.738Z,7.47
2023-04-18T13:55:12.835Z,8.98
2023-04-18T13:57:41.197Z,20.83
2023-04-18T14:00:13.068Z,7.65
2023-04-18T14:02:40.988Z,6.97
2023-04-18T14:05:09.697Z,7.55
2023-04-18T14:07:38.301Z,7.50
2023-04-18T14:10:06.898Z,7.18
2023-04-18T14:12:35.902Z,7.20
2023-04-18T14:15:03.624Z,6.75
2023-04-18T14:17:31.375Z,6.80
2023-04-18T14:19:59.113Z,6.90
2023-04-18T14:22:26.941Z,8.07
2023-04-18T14:24:56.114Z,6.47
2023-04-18T14:27:25.403Z,7.05
2023-04-18T14:29:54.457Z,7.10
2023-04-18T14:32:22.132Z,8.90
2023-04-18T14:34:49.754Z,7.15
2023-04-18T14:37:17.833Z,7.57
2023-04-18T14:39:46.118Z,6.95
2023-04-18T14:42:13.838Z,7.55
2023-04-18T14:44:41.891Z,7.65
2023-04-18T14:47:11.255Z,8.50
2023-04-18T14:49:39.078Z,7.30
2023-04-18T14:52:06.841Z,7.28
2023-04-18T14:54:34.442Z,6.45
2023-04-18T14:57:02.184Z,7.50
2023-04-18T14:59:30.213Z,7.03
2023-04-18T15:01:58.054Z,6.35
2023-04-18T15:04:28.110Z,5.70
2023-04-18T15:06:56.362Z,6.13
2023-04-18T15:09:24.016Z,6.15
2023-04-18T15:11:51.964Z,7.35
2023-04-18T15:14:19.791Z,6.38
2023-04-18T15:16:50.245Z,6.82
2023-04-18T15:19:18.105Z,6.75
2023-04-18T15:21:47.206Z,6.13
2023-04-18T15:24:15.488Z,6.72
2023-04-18T15:26:43.407Z,6.20
2023-04-18T15:29:11.459Z,6.75
2023-04-18T15:33:11.807Z,6.85
2023-04-18T15:35:39.495Z,6.93
2023-04-18T15:40:17.137Z,6.10
2023-04-18T15:43:07.207Z,6.22
2023-04-18T15:45:46.963Z,6.47
2023-04-18T15:48:16.792Z,5.47
2023-04-18T15:50:58.531Z,5.97
2023-04-18T15:53:36.903Z,6.55
2023-04-18T15:56:06.398Z,6.10
2023-04-18T15:58:37.204Z,5.90
2023-04-18T16:01:17.175Z,5.38
2023-04-18T16:03:52.039Z,5.97
2023-04-18T16:06:23.454Z,5.47
2023-04-18T16:08:51.504Z,5.20
2023-04-18T16:11:21.372Z,4.38
2023-04-18T16:13:50.429Z,4.75
2023-04-18T16:16:18.126Z,4.43
2023-04-18T16:18:45.886Z,4.80
2023-04-18T16:21:14.582Z,4.47
2023-04-18T16:23:42.712Z,4.70
2023-04-18T16:26:10.522Z,4.55
2023-04-18T16:28:39.646Z,4.00
2023-04-18T16:31:07.646Z,3.95
2023-04-18T16:33:35.598Z,4.30
2023-04-18T16:36:03.621Z,5.20
2023-04-18T16:39:21.329Z,3.90
2023-04-18T16:41:49.030Z,5.88
2023-04-18T16:44:16.716Z,3.97
2023-04-18T16:46:44.543Z,4.45
2023-04-18T16:49:12.376Z,4.38
2023-04-18T16:51:40.417Z,4.40
2023-04-18T16:54:08.721Z,4.60
2023-04-18T16:56:37.784Z,4.25
2023-04-18T17:00:26.142Z,4.30
2023-04-18T17:02:55.730Z,4.45
2023-04-18T17:05:25.408Z,4.82
2023-04-18T17:07:53.254Z,5.20
2023-04-18T17:10:20.999Z,5.68
2023-04-18T17:12:49.379Z,6.47
2023-04-18T17:15:18.912Z,4.43
2023-04-18T17:17:47.950Z,4.63
2023-04-18T17:20:17.007Z,4.72
2023-04-18T17:22:44.868Z,4.35
2023-04-18T17:25:12.666Z,4.28
2023-04-18T17:27:40.527Z,4.50
2023-04-18T17:30:09.326Z,4.72
2023-04-18T17:32:41.875Z,4.32
2023-04-18T17:35:11.621Z,5.88
2023-04-18T17:37:39.263Z,5.10
2023-04-18T17:40:09.726Z,4.50
2023-04-18T17:42:37.681Z,4.68
2023-04-18T17:45:06.087Z,6.10
2023-04-18T17:47:33.812Z,4.47
2023-04-18T17:50:01.858Z,4.90
2023-04-18T17:52:31.159Z,4.27
2023-04-18T17:54:59.716Z,5.13
2023-04-18T17:57:27.680Z,4.20
2023-04-18T17:59:55.397Z,4.53
2023-04-18T18:02:23.585Z,4.97
2023-04-18T18:04:51.543Z,7.88
2023-04-18T18:07:19.373Z,5.20
2023-04-18T18:09:48.572Z,5.00
2023-04-18T18:12:16.418Z,5.35
2023-04-18T18:14:44.033Z,5.43
2023-04-18T18:17:12.438Z,5.28
2023-04-18T18:19:40.287Z,6.07
2023-04-18T18:22:08.460Z,5.70
2023-04-18T18:24:36.164Z,6.03
2023-04-18T18:27:06.088Z,5.60
2023-04-18T18:29:33.839Z,5.75
2023-04-18T18:32:01.662Z,5.78
2023-04-18T18:34:31.958Z,7.55
2023-04-18T18:36:59.683Z,5.78
2023-04-18T18:39:27.353Z,5.85
2023-04-18T18:41:54.949Z,6.03
2023-04-18T18:44:23.983Z,5.85
2023-04-18T18:46:51.727Z,6.70
2023-04-18T18:49:19.510Z,10.38
2023-04-18T18:51:47.124Z,8.80
2023-04-18T18:54:14.793Z,6.30
2023-04-18T18:56:42.797Z,6.13
2023-04-18T18:59:10.483Z,7.20
2023-04-18T19:01:39.709Z,6.40
2023-04-18T19:04:07.833Z,7.35
2023-04-18T19:06:35.669Z,6.97
2023-04-18T19:09:03.935Z,6.83
2023-04-18T19:11:31.709Z,6.53
2023-04-18T19:13:59.391Z,6.70
2023-04-18T19:16:27.115Z,6.28
2023-04-18T19:18:56.237Z,6.30
2023-04-18T19:21:23.967Z,6.78
2023-04-18T19:23:51.763Z,5.93
2023-04-18T19:26:19.605Z,6.20
2023-04-18T19:28:47.406Z,6.22
2023-04-18T19:31:15.216Z,6.57
2023-04-18T19:33:42.953Z,6.28
2023-04-18T19:36:12.016Z,6.78
2023-04-18T19:38:39.869Z,6.60
2023-04-18T19:41:07.612Z,6.28
2023-04-18T19:43:35.749Z,6.40
2023-04-18T19:46:03.470Z,6.30
2023-04-18T19:48:31.191Z,6.45
2023-04-18T19:50:58.849Z,7.10
2023-04-18T19:53:27.973Z,5.93
2023-04-18T19:55:56.027Z,6.03
2023-04-18T19:58:34.583Z,6.18
2023-04-18T20:01:02.375Z,6.33
2023-04-18T20:03:30.296Z,6.05
2023-04-18T20:05:58.106Z,6.40
2023-04-18T20:08:27.238Z,6.13
2023-04-18T20:10:54.842Z,6.03
2023-04-18T20:13:22.460Z,6.15
2023-04-18T20:15:50.191Z,7.03
2023-04-18T20:18:18.134Z,5.63
2023-04-18T20:20:45.892Z,6.03
2023-04-18T20:23:14.440Z,5.82
2023-04-18T20:25:44.129Z,5.97
2023-04-18T20:28:12.126Z,6.03
2023-04-18T20:30:39.925Z,6.18
2023-04-18T20:33:07.668Z,5.97
2023-04-18T20:35:36.196Z,6.32
2023-04-18T20:38:03.883Z,5.78
2023-04-18T20:40:33.244Z,6.05
2023-04-18T20:43:03.309Z,6.00
2023-04-18T20:45:31.878Z,6.10
2023-04-18T20:47:59.850Z,5.35
2023-04-18T20:50:27.585Z,5.70
2023-04-18T20:52:55.350Z,6.13
2023-04-18T20:55:23.099Z,5.70
2023-04-18T20:57:50.803Z,5.93
2023-04-18T21:00:20.135Z,5.60
2023-04-18T21:02:48.067Z,5.83
2023-04-18T21:05:16.155Z,5.93
2023-04-18T21:07:45.290Z,6.25
2023-04-18T21:10:14.038Z,6.15
2023-04-18T21:12:41.776Z,5.93
2023-04-18T21:15:10.191Z,6.93
2023-04-18T21:17:39.352Z,6.50
2023-04-18T21:20:09.080Z,6.23
2023-04-18T21:22:36.766Z,5.82
2023-04-18T21:25:05.093Z,6.30
2023-04-18T21:27:32.849Z,5.95
2023-04-18T21:30:01.774Z,5.97
2023-04-18T21:32:30.535Z,6.30
2023-04-18T21:35:00.643Z,6.25
2023-04-18T21:37:28.356Z,6.20
2023-04-18T21:39:55.996Z,7.35
2023-04-18T21:42:23.730Z,5.77
2023-04-18T21:44:51.452Z,6.85
2023-04-18T21:47:19.107Z,6.32
2023-04-18T21:49:46.737Z,6.70
2023-04-18T21:52:15.849Z,6.60
2023-04-18T21:54:43.551Z,6.87
2023-04-18T21:57:11.310Z,6.53
2023-04-18T21:59:38.936Z,6.97
2023-04-18T22:02:06.853Z,6.45
2023-04-18T22:04:34.756Z,7.05
2023-04-18T22:07:02.497Z,6.85
2023-04-18T22:09:33.886Z,6.72
2023-04-18T22:12:03.346Z,7.18
2023-04-18T22:14:31.987Z,6.40
2023-04-18T22:17:00.056Z,7.38
2023-04-18T22:19:29.348Z,6.82
2023-04-18T22:21:57.048Z,6.60
2023-04-18T22:24:25.979Z,7.63
2023-04-18T22:26:55.153Z,7.70
2023-04-18T22:29:22.839Z,7.33
2023-04-18T22:31:50.864Z,8.00
2023-04-18T22:34:18.610Z,7.22
2023-04-18T22:36:46.306Z,7.00
2023-04-18T22:39:14.004Z,7.50
2023-04-18T22:41:41.782Z,7.50
2023-04-18T22:44:10.877Z,7.45
2023-04-18T22:46:39.259Z,7.38
2023-04-18T22:49:07.285Z,7.75
2023-04-18T22:51:34.935Z,7.68
2023-04-18T22:54:02.609Z,8.73
2023-04-18T22:56:30.283Z,8.38
2023-04-18T22:58:58.001Z,8.32
2023-04-18T23:01:27.091Z,7.97
2023-04-18T23:03:55.184Z,8.20
2023-04-18T23:06:23.105Z,8.10
2023-04-18T23:08:50.967Z,8.52
2023-04-18T23:11:18.628Z,9.25
2023-04-18T23:13:46.308Z,8.90
2023-04-18T23:16:14.024Z,8.77
2023-04-18T23:18:43.167Z,8.65
2023-04-18T23:21:10.843Z,8.85
2023-04-18T23:23:38.482Z,9.13
2023-04-18T23:26:13.648Z,9.65
2023-04-18T23:28:41.620Z,9.05
2023-04-18T23:31:09.797Z,9.18
2023-04-18T23:33:37.501Z,9.70
2023-04-18T23:36:07.618Z,8.82
2023-04-18T23:38:37.191Z,9.33
2023-04-18T23:41:05.015Z,9.10
2023-04-18T23:43:33.093Z,9.45
2023-04-18T23:46:00.900Z,9.20
2023-04-18T23:48:28.545Z,9.52
2023-04-18T23:50:56.183Z,9.50
2023-04-18T23:53:25.392Z,9.95
2023-04-18T23:55:54.414Z,9.68
2023-04-18T23:58:22.146Z,9.40
